Time;durP1;ratioP1;P1;durP2;ratioP2;P2;SDS_P1;SDS_P2;PMS_P1;PMS_P2;Temp;Humidity;BMP_temperature;BMP_pressure;BME280_temperature;BME280_humidity;BME280_pressure;Samples;Min_cycle;Max_cycle;Signal;HPM_P1;HPM_P2
2021/12/12 00:01:00;;;;;;;49.87;25.13;;;;;;;-0.64;84.80;101317.49;1773738;80;21460;-74
2021/12/12 00:03:39;;;;;;;49.53;24.13;;;;;;;-0.64;84.62;101320.49;1773316;80;21057;-74
2021/12/12 00:06:13;;;;;;;36.23;20.57;;;;;;;-0.66;84.60;101314.46;1773448;80;21536;-76
2021/12/12 00:08:43;;;;;;;37.87;21.27;;;;;;;-0.70;84.31;101312.20;1771526;80;21034;-73
2021/12/12 00:11:13;;;;;;;;;;;;;;;-0.77;84.22;101317.64;1738689;82;21031;-74
2021/12/12 00:13:54;;;;;;;40.03;20.57;;;;;;;-0.79;84.42;101309.42;1735426;82;21810;-74
2021/12/12 00:16:21;;;;;;;35.77;18.67;;;;;;;-0.81;84.46;101314.95;1736295;82;21196;-77
2021/12/12 00:18:49;;;;;;;36.07;19.83;;;;;;;-0.85;84.45;101310.15;1736102;82;21039;-73
2021/12/12 00:21:19;;;;;;;36.23;19.00;;;;;;;-0.86;84.49;101318.69;1736328;82;21500;-75
2021/12/12 00:23:46;;;;;;;39.18;20.45;;;;;;;-0.85;84.65;101317.88;1736279;82;23683;-74
2021/12/12 00:26:14;;;;;;;40.60;21.00;;;;;;;-0.82;84.86;101320.94;1736230;82;21208;-74
2021/12/12 00:28:41;;;;;;;36.67;19.93;;;;;;;-0.78;85.14;101322.31;1736365;82;21905;-74
2021/12/12 00:31:13;;;;;;;36.60;20.37;;;;;;;-0.73;85.13;101326.30;1736312;82;21031;-75
2021/12/12 00:33:46;;;;;;;38.03;20.20;;;;;;;-0.69;85.17;101330.28;1736025;82;21023;-77
2021/12/12 00:36:18;;;;;;;36.47;20.17;;;;;;;-0.62;85.21;101336.86;1736408;82;21027;-74
2021/12/12 00:38:51;;;;;;;36.27;19.23;;;;;;;-0.63;84.82;101333.84;1736421;82;21354;-74
2021/12/12 00:41:44;;;;;;;34.60;18.67;;;;;;;-0.67;84.77;101340.59;1736202;82;21130;-74
2021/12/12 00:44:14;;;;;;;40.57;19.57;;;;;;;-0.69;84.52;101341.00;1735753;82;21051;-73
2021/12/12 00:46:42;;;;;;;41.23;21.50;;;;;;;-0.75;84.48;101351.13;1736548;82;21449;-74
2021/12/12 00:49:12;;;;;;;42.70;21.73;;;;;;;-0.80;84.26;101348.46;1736060;82;21074;-80
2021/12/12 00:51:42;;;;;;;37.43;19.90;;;;;;;-0.89;84.17;101349.50;1736355;82;21007;-79
2021/12/12 00:54:11;;;;;;;38.77;20.30;;;;;;;-0.96;84.14;101348.48;1736456;82;21933;-74
2021/12/12 00:56:40;;;;;;;39.87;20.03;;;;;;;-1.04;84.07;101357.72;1735963;82;20996;-75
2021/12/12 00:59:07;;;;;;;43.40;20.90;;;;;;;-1.13;84.10;101360.92;1736372;82;21000;-74
2021/12/12 01:01:41;;;;;;;44.73;21.70;;;;;;;-1.19;84.17;101362.45;1736026;82;20954;-78
2021/12/12 01:04:13;;;;;;;36.87;20.20;;;;;;;-1.28;84.11;101371.22;1736546;82;21039;-74
2021/12/12 01:06:43;;;;;;;36.33;19.80;;;;;;;-1.39;84.07;101376.06;1736199;82;21155;-74
2021/12/12 01:09:16;;;;;;;35.73;19.12;;;;;;;-1.47;84.25;101378.84;1736361;80;21028;-78
2021/12/12 01:11:48;;;;;;;37.73;21.37;;;;;;;-1.53;84.42;101368.39;1736387;82;21632;-74
2021/12/12 01:14:20;;;;;;;36.27;19.87;;;;;;;-1.53;84.60;101370.97;1736191;82;21046;-73
2021/12/12 01:16:53;;;;;;;37.73;19.03;;;;;;;-1.55;84.80;101372.22;1736475;82;21282;-76
2021/12/12 01:19:34;;;;;;;34.63;19.30;;;;;;;-1.54;84.93;101375.23;1736413;82;21931;-74
2021/12/12 01:22:07;;;;;;;40.63;20.73;;;;;;;-1.54;84.94;101367.95;1736657;82;21007;-78
2021/12/12 01:24:39;;;;;;;35.97;20.23;;;;;;;-1.55;85.05;101361.94;1736377;82;21047;-74
2021/12/12 01:27:08;;;;;;;45.17;23.00;;;;;;;-1.53;85.09;101366.69;1736565;82;21079;-73
2021/12/12 01:29:36;;;;;;;40.10;20.53;;;;;;;-1.55;84.98;101367.47;1736502;82;21316;-74
2021/12/12 01:32:11;;;;;;;46.53;23.40;;;;;;;-1.57;85.03;101364.45;1736582;82;21091;-75
2021/12/12 01:34:38;;;;;;;41.30;20.83;;;;;;;-1.60;84.80;101360.52;1736326;82;21020;-78
2021/12/12 01:40:02;;;;;;;40.53;22.17;;;;;;;-1.60;85.33;101357.08;1736614;82;21534;-73
2021/12/12 01:42:46;;;;;;;36.40;18.60;;;;;;;-1.50;85.76;101355.62;1736145;82;21355;-74
2021/12/12 01:45:28;;;;;;;38.13;19.03;;;;;;;-1.42;85.75;101355.41;1735796;82;21136;-74
2021/12/12 01:48:18;;;;;;;33.17;17.87;;;;;;;-1.36;85.60;101356.47;1736741;82;21027;-74
2021/12/12 01:50:51;;;;;;;35.50;18.27;;;;;;;-1.40;85.18;101357.62;1736187;82;21559;-74
2021/12/12 01:53:23;;;;;;;35.40;17.57;;;;;;;-1.41;85.28;101348.17;1736586;82;21071;-74
2021/12/12 01:56:01;;;;;;;36.37;19.00;;;;;;;-1.40;85.38;101335.34;1736153;82;21071;-77
2021/12/12 01:58:31;;;;;;;42.63;21.10;;;;;;;-1.37;85.45;101331.98;1688229;82;21220;-74
2021/12/12 02:01:07;;;;;;;44.88;23.35;;;;;;;-1.35;85.35;101329.05;1683362;85;21030;-77
2021/12/12 02:03:39;;;;;;;41.17;20.43;;;;;;;-1.33;85.46;101324.82;1683187;85;20938;-74
2021/12/12 02:06:10;;;;;;;39.97;21.27;;;;;;;-1.31;85.50;101318.41;1683093;85;21030;-75
2021/12/12 02:08:39;;;;;;;38.83;19.70;;;;;;;-1.27;85.59;101320.25;1683183;85;21353;-75
2021/12/12 02:11:11;;;;;;;39.37;19.90;;;;;;;-1.25;85.72;101317.28;1710008;83;21091;-78
2021/12/12 02:13:43;;;;;;;36.50;19.43;;;;;;;-1.21;85.89;101316.13;1717508;83;21015;-74
2021/12/12 02:16:11;;;;;;;39.83;20.17;;;;;;;-1.19;85.60;101317.04;1718204;83;21065;-73
2021/12/12 02:18:46;;;;;;;41.80;21.47;;;;;;;-1.20;85.66;101313.99;1717845;83;21023;-74
2021/12/12 02:21:26;;;;;;;36.50;19.73;;;;;;;-1.18;85.61;101324.34;1717926;83;21085;-74
2021/12/12 02:35:15;;;;;;;43.43;21.20;;;;;;;-1.25;85.65;101345.16;1718018;83;21078;-74
2021/12/12 02:37:35;;;;;;;43.03;20.23;;;;;;;-1.23;85.93;101356.36;1714513;83;21859;-73
2021/12/12 02:40:07;;;;;;;46.93;22.87;;;;;;;-1.21;85.88;101352.56;1717863;83;21583;-73
2021/12/12 02:42:35;;;;;;;46.83;22.03;;;;;;;-1.18;86.07;101357.78;1717116;83;21015;-73
2021/12/12 02:45:07;;;;;;;43.87;21.50;;;;;;;-1.16;86.13;101358.27;1697832;83;21048;-76
2021/12/12 02:47:35;;;;;;;47.10;22.10;;;;;;;-1.13;86.18;101364.78;1718070;83;21050;-77
2021/12/12 02:50:16;;;;;;;48.63;22.80;;;;;;;-1.04;86.44;101369.72;1717830;83;21140;-74
2021/12/12 02:52:57;;;;;;;42.83;21.90;;;;;;;-0.99;86.36;101366.84;1718011;83;21593;-73
2021/12/12 02:55:29;;;;;;;47.77;22.77;;;;;;;-1.03;85.96;101369.73;1717748;83;21489;-73
2021/12/12 02:58:00;;;;;;;43.83;21.30;;;;;;;-1.03;86.13;101363.73;1718042;83;21492;-73
2021/12/12 03:00:30;;;;;;;;;;;;;;;-1.00;86.17;101363.41;1720525;83;21051;-79
2021/12/12 03:02:59;;;;;;;43.33;22.70;;;;;;;-0.95;86.51;101369.52;1718212;83;21117;-73
2021/12/12 03:05:32;;;;;;;42.07;20.87;;;;;;;-0.90;86.39;101366.65;1717742;83;20999;-74
2021/12/12 03:07:59;;;;;;;50.53;23.07;;;;;;;-0.88;86.28;101369.70;1718064;83;20992;-73
2021/12/12 03:10:31;;;;;;;51.30;24.20;;;;;;;-0.89;86.20;101368.80;1717602;83;21022;-77
2021/12/12 03:12:59;;;;;;;42.80;22.40;;;;;;;-0.89;86.19;101367.52;1717541;83;21634;-73
2021/12/12 03:15:33;;;;;;;49.97;23.23;;;;;;;-0.90;85.98;101371.80;1717812;83;21220;-74
2021/12/12 03:18:03;;;;;;;51.67;24.03;;;;;;;-0.94;85.94;101366.55;1717763;83;21015;-73
2021/12/12 03:20:38;;;;;;;46.73;22.20;;;;;;;-0.95;85.92;101368.66;1717760;83;21467;-73
2021/12/12 03:23:10;;;;;;;49.93;23.93;;;;;;;-0.97;85.99;101367.34;1717754;83;21520;-79
2021/12/12 03:25:39;;;;;;;44.30;22.77;;;;;;;-1.01;85.75;101368.50;1717452;83;21492;-74
2021/12/12 03:28:11;;;;;;;51.97;24.47;;;;;;;-1.03;85.83;101374.88;1717762;83;21135;-73
2021/12/12 03:30:40;;;;;;;58.70;26.43;;;;;;;-1.06;85.83;101372.23;1717732;83;20946;-73
2021/12/12 03:33:07;;;;;;;56.43;27.23;;;;;;;-1.03;86.13;101369.73;1717970;83;21542;-77
2021/12/12 03:35:36;;;;;;;55.60;26.43;;;;;;;-0.98;86.16;101368.58;1717938;83;20990;-74
2021/12/12 03:38:06;;;;;;;50.53;24.03;;;;;;;-0.98;86.03;101364.72;1717718;83;21305;-73
2021/12/12 03:40:38;;;;;;;55.65;24.10;;;;;;;-0.96;86.17;101370.36;1718385;83;21174;-74
2021/12/12 03:43:08;;;;;;;50.73;24.10;;;;;;;-0.98;85.81;101378.88;1717938;83;21004;-75
2021/12/12 03:45:37;;;;;;;51.83;24.90;;;;;;;-1.04;85.49;101383.87;1717921;83;21003;-73
2021/12/12 03:48:12;;;;;;;54.00;25.53;;;;;;;-1.09;85.32;101395.31;1717996;83;21125;-73
2021/12/12 03:50:43;;;;;;;51.17;22.80;;;;;;;-1.13;85.29;101398.23;1717845;83;21051;-73
2021/12/12 03:53:11;;;;;;;50.80;23.80;;;;;;;-1.16;85.28;101402.02;1717872;83;21933;-75
2021/12/12 03:55:41;;;;;;;54.70;25.27;;;;;;;-1.22;85.24;101407.00;1717882;83;21501;-75
2021/12/12 03:58:12;;;;;;;46.13;22.37;;;;;;;-1.27;84.95;101399.56;1718046;83;21090;-78
2021/12/12 04:00:59;;;;;;;49.57;24.63;;;;;;;-1.37;84.87;101397.14;1717763;83;21004;-74
2021/12/12 04:03:27;;;;;;;48.10;24.50;;;;;;;-1.43;84.74;101399.55;1717971;83;21025;-74
2021/12/12 04:05:59;;;;;;;44.13;20.83;;;;;;;-1.50;84.74;101405.76;1718010;83;21108;-73
2021/12/12 04:08:30;;;;;;;39.73;20.47;;;;;;;-1.59;84.58;101408.94;1717679;83;21070;-73
2021/12/12 04:10:58;;;;;;;38.13;20.67;;;;;;;-1.68;84.35;101408.27;1716423;83;21589;-73
2021/12/12 04:13:25;;;;;;;38.17;19.70;;;;;;;-1.78;84.31;101413.95;1717712;83;21003;-73
2021/12/12 04:15:56;;;;;;;41.60;21.20;;;;;;;-1.87;84.37;101409.42;1718029;83;21078;-78
2021/12/12 04:18:27;;;;;;;40.45;21.62;;;;;;;-1.90;84.67;101413.19;1717932;83;21940;-78
2021/12/12 04:20:55;;;;;;;43.50;21.57;;;;;;;-1.92;84.71;101419.11;1717978;83;21071;-73
2021/12/12 04:23:27;;;;;;;43.37;21.47;;;;;;;-1.98;84.59;101417.64;1717823;83;21015;-73
2021/12/12 04:26:04;;;;;;;39.07;19.90;;;;;;;-2.07;84.58;101416.53;1717838;83;21073;-76
2021/12/12 04:28:31;;;;;;;37.27;19.37;;;;;;;-2.12;84.54;101414.23;1708849;83;21019;-72
2021/12/12 04:30:58;;;;;;;39.13;21.07;;;;;;;-2.18;84.74;101413.19;1718123;83;21785;-73
2021/12/12 04:33:26;;;;;;;41.50;20.50;;;;;;;-2.19;85.06;101407.18;1717915;83;21034;-73
2021/12/12 04:35:53;;;;;;;36.10;18.67;;;;;;;-2.21;85.26;101407.53;1718266;83;21003;-73
2021/12/12 04:38:20;;;;;;;32.17;18.53;;;;;;;-2.22;85.26;101409.63;1717847;83;21467;-74
2021/12/12 04:40:47;;;;;;;35.63;18.93;;;;;;;-2.26;85.14;101413.80;1718326;83;21419;-74
2021/12/12 04:43:13;;;;;;;38.33;20.07;;;;;;;-2.30;85.04;101405.56;1717935;83;21143;-73
2021/12/12 04:46:06;;;;;;;41.53;20.27;;;;;;;-2.35;85.19;101408.39;1718007;83;20992;-74
2021/12/12 04:51:50;;;;;;;42.43;20.17;;;;;;;-2.40;85.42;101411.64;1718006;83;21035;-76
2021/12/12 04:54:40;;;;;;;43.83;21.33;;;;;;;-2.43;85.40;101416.67;1712052;83;21000;-73
2021/12/12 04:57:19;;;;;;;36.58;19.30;;;;;;;-2.48;85.24;101413.95;1718478;83;21571;-77
2021/12/12 04:59:51;;;;;;;39.63;21.77;;;;;;;-2.52;85.11;101418.12;1716088;83;20998;-75
2021/12/12 05:02:47;;;;;;;40.50;21.13;;;;;;;-2.59;84.73;101412.31;1718248;83;21495;-73
2021/12/12 05:05:19;;;;;;;37.17;20.43;;;;;;;-2.66;84.95;101406.92;1717822;83;21463;-75
2021/12/12 05:07:54;;;;;;;37.47;20.70;;;;;;;-2.66;84.86;101402.69;1717461;83;22125;-74
2021/12/12 05:10:44;;;;;;;36.87;19.63;;;;;;;-2.72;84.59;101403.74;1716646;83;21107;-74
2021/12/12 05:13:41;;;;;;;39.23;19.87;;;;;;;-2.80;84.02;101403.52;1717627;83;21010;-79
2021/12/12 05:16:16;;;;;;;38.10;18.97;;;;;;;-2.97;83.65;101405.48;1715902;83;21034;-77
2021/12/12 05:18:50;;;;;;;42.87;20.03;;;;;;;-3.09;83.53;101410.63;1717785;83;21030;-74
2021/12/12 05:21:28;;;;;;;36.77;19.27;;;;;;;-3.18;83.76;101406.91;1718062;83;21000;-74
2021/12/12 05:24:02;;;;;;;43.80;20.40;;;;;;;-3.21;83.90;101412.36;1712962;83;21451;-75
2021/12/12 05:26:36;;;;;;;39.03;19.63;;;;;;;-3.27;83.74;101411.73;1717839;83;20995;-74
2021/12/12 05:29:16;;;;;;;39.30;19.40;;;;;;;-3.38;83.48;101410.06;1717525;83;21030;-74
2021/12/12 05:31:49;;;;;;;40.23;19.80;;;;;;;-3.43;83.75;101415.43;1717618;83;21465;-73
2021/12/12 05:34:19;;;;;;;32.57;18.47;;;;;;;-3.47;83.59;101413.97;1718074;83;21289;-78
2021/12/12 05:36:48;;;;;;;37.73;19.20;;;;;;;-3.51;83.73;101413.00;1717937;83;21132;-73
2021/12/12 05:39:16;;;;;;;33.97;16.70;;;;;;;-3.56;83.46;101413.65;1718041;83;21027;-73
2021/12/12 05:41:43;;;;;;;46.70;24.17;;;;;;;-3.59;83.78;101420.40;1717773;83;20991;-74
2021/12/12 05:44:10;;;;;;;36.17;20.90;;;;;;;-3.60;83.77;101428.05;1718064;83;21023;-75
2021/12/12 05:46:37;;;;;;;38.37;19.53;;;;;;;-3.61;83.99;101436.11;1717909;83;21038;-74
2021/12/12 05:49:06;;;;;;;37.27;18.10;;;;;;;-3.60;84.20;101439.58;1718050;83;22288;-73
2021/12/12 05:51:34;;;;;;;33.13;17.20;;;;;;;-3.65;83.99;101438.53;1717690;83;21517;-74
2021/12/12 05:54:03;;;;;;;62.90;31.63;;;;;;;-3.71;83.85;101439.59;1717923;83;21015;-78
2021/12/12 05:56:35;;;;;;;58.30;27.83;;;;;;;-3.75;84.07;101444.98;1718050;83;20955;-73
2021/12/12 05:59:06;;;;;;;52.17;27.50;;;;;;;-3.77;83.93;101453.42;1718204;83;21563;-77
2021/12/12 06:01:33;;;;;;;41.35;21.77;;;;;;;-3.83;84.06;101451.50;1718009;83;21120;-78
2021/12/12 06:04:01;;;;;;;43.20;21.73;;;;;;;-3.92;84.00;101458.43;1717714;83;20955;-73
2021/12/12 06:06:33;;;;;;;41.90;21.47;;;;;;;-3.93;84.07;101459.67;1717986;83;21078;-73
2021/12/12 06:09:03;;;;;;;43.27;20.60;;;;;;;-3.94;84.20;101466.45;1717919;83;20923;-74
2021/12/12 06:11:33;;;;;;;40.43;19.65;;;;;;;-3.96;84.27;101476.17;1717825;83;21026;-73
2021/12/12 06:14:02;;;;;;;46.60;23.40;;;;;;;-3.96;84.27;101474.89;1717904;83;21118;-73
2021/12/12 06:16:32;;;;;;;43.93;23.20;;;;;;;-3.99;84.19;101482.08;1717621;83;21059;-73
2021/12/12 06:19:13;;;;;;;36.77;19.02;;;;;;;-4.02;84.11;101483.61;1717963;83;20959;-73
2021/12/12 06:21:40;;;;;;;;;;;;;;;-4.02;84.27;101483.20;1720459;83;21027;-73
2021/12/12 06:24:09;;;;;;;34.27;17.70;;;;;;;-4.01;84.43;101483.69;1717801;83;20416;-73
2021/12/12 06:26:38;;;;;;;39.77;18.17;;;;;;;-4.02;84.07;101484.89;1717756;83;21125;-76
2021/12/12 06:29:06;;;;;;;34.57;17.90;;;;;;;-4.13;83.75;101494.33;1717836;83;21676;-78
2021/12/12 06:31:38;;;;;;;36.03;18.47;;;;;;;-4.14;83.94;101497.68;1697480;83;21515;-74
2021/12/12 06:34:06;;;;;;;30.13;17.03;;;;;;;-4.15;83.92;101497.64;1717740;83;21038;-73
2021/12/12 06:36:33;;;;;;;29.50;15.53;;;;;;;-4.15;84.02;101497.22;1718033;83;21121;-76
2021/12/12 06:39:01;;;;;;;26.53;15.23;;;;;;;-4.16;83.97;101500.58;1717951;83;21150;-73
2021/12/12 06:41:28;;;;;;;25.27;14.00;;;;;;;-4.13;83.97;101503.29;1717634;83;21003;-74
2021/12/12 06:43:56;;;;;;;24.27;14.00;;;;;;;-4.16;83.69;101504.83;1718035;83;21054;-73
2021/12/12 06:46:24;;;;;;;42.70;20.50;;;;;;;-4.22;83.36;101509.70;1717768;83;21311;-73
2021/12/12 06:48:52;;;;;;;85.30;32.40;;;;;;;-4.26;83.58;101512.55;1718137;83;21092;-72
2021/12/12 06:51:20;;;;;;;221.90;71.73;;;;;;;-4.30;83.63;101508.97;1717694;83;21141;-74
2021/12/12 06:53:48;;;;;;;305.20;92.43;;;;;;;-4.33;83.55;101513.97;1717951;83;21310;-74
2021/12/12 06:56:19;;;;;;;166.10;59.57;;;;;;;-4.42;83.34;101509.77;1717917;83;21070;-74
2021/12/12 06:58:46;;;;;;;;;;;;;;;-4.46;83.42;101514.67;1720464;83;21452;-77
2021/12/12 07:01:18;;;;;;;45.77;21.47;;;;;;;-4.50;83.39;101513.27;1717989;83;20559;-75
2021/12/12 07:03:47;;;;;;;46.47;24.03;;;;;;;-4.55;83.37;101510.92;1718046;83;21275;-77
2021/12/12 07:06:18;;;;;;;47.20;26.77;;;;;;;-4.58;83.46;101518.89;1717680;83;21059;-75
2021/12/12 07:08:45;;;;;;;;;;;;;;;-4.54;83.87;101520.38;1721770;81;20899;-78
2021/12/12 07:11:20;;;;;;;28.83;15.07;;;;;;;-4.50;83.79;101513.27;1732719;80;20181;-76
2021/12/12 07:13:49;;;;;;;31.80;16.43;;;;;;;-4.58;83.32;101517.19;1683036;85;21010;-74
2021/12/12 07:16:20;;;;;;;30.20;16.47;;;;;;;-4.57;83.82;101517.69;1683304;85;21492;-74
2021/12/12 07:18:49;;;;;;;30.15;16.55;;;;;;;-4.46;84.05;101513.40;1683416;85;20971;-74
2021/12/12 07:21:18;;;;;;;38.67;19.43;;;;;;;-4.43;83.97;101510.59;1683242;85;21038;-74
2021/12/12 07:23:47;;;;;;;37.13;17.53;;;;;;;-4.37;83.78;101514.67;1683246;85;20991;-76
2021/12/12 07:26:16;;;;;;;32.37;17.33;;;;;;;-4.36;83.56;101520.66;1683198;85;21042;-76
2021/12/12 07:28:45;;;;;;;35.03;18.40;;;;;;;-4.44;83.07;101525.45;1683205;85;21849;-76
2021/12/12 07:31:19;;;;;;;51.77;24.97;;;;;;;-4.45;83.18;101522.84;1683147;85;21026;-75
2021/12/12 07:33:50;;;;;;;42.57;24.60;;;;;;;-4.41;83.52;101520.87;1683140;85;21038;-77
2021/12/12 07:36:20;;;;;;;39.40;23.73;;;;;;;-4.35;83.82;101513.06;1683175;85;21573;-76
2021/12/12 07:38:54;;;;;;;37.53;21.40;;;;;;;-4.29;83.94;101524.82;1683348;85;21007;-78
2021/12/12 07:41:26;;;;;;;67.47;32.57;;;;;;;-4.20;84.14;101524.73;1692502;83;21142;-76
2021/12/12 07:43:54;;;;;;;47.90;24.13;;;;;;;-4.17;83.98;101524.44;1685871;83;22338;-76
2021/12/12 07:46:23;;;;;;;36.70;22.07;;;;;;;-4.14;83.95;101519.44;1684493;83;21603;-77
2021/12/12 07:48:53;;;;;;;43.17;22.23;;;;;;;-4.13;83.67;101526.71;1709550;83;21475;-74
2021/12/12 07:51:22;;;;;;;93.07;43.35;;;;;;;-4.16;83.29;101528.73;1711910;83;21261;-80
2021/12/12 07:53:53;;;;;;;94.50;42.83;;;;;;;-4.21;83.23;101534.11;1711713;83;21130;-74
2021/12/12 07:56:23;;;;;;;77.30;37.03;;;;;;;-4.21;83.09;101542.16;1711724;83;21015;-75
2021/12/12 07:58:51;;;;;;;100.80;47.08;;;;;;;-4.21;83.22;101549.47;1711620;83;21472;-75
2021/12/12 08:01:19;;;;;;;110.17;52.37;;;;;;;-4.20;83.34;101546.49;1711314;83;21489;-76
2021/12/12 08:03:46;;;;;;;167.83;80.47;;;;;;;-4.16;83.49;101549.63;1711857;83;21015;-75
2021/12/12 08:06:15;;;;;;;150.50;66.40;;;;;;;-4.11;83.82;101550.28;1711903;83;21205;-77
2021/12/12 08:08:43;;;;;;;94.27;40.37;;;;;;;-3.98;84.19;101550.39;1712132;83;21545;-77
2021/12/12 08:11:12;;;;;;;75.47;36.03;;;;;;;-3.89;84.18;101544.77;1711990;82;21027;-76
2021/12/12 08:13:40;;;;;;;76.23;35.90;;;;;;;-3.83;84.10;101556.11;1727070;82;20999;-77
2021/12/12 08:16:09;;;;;;;76.40;35.93;;;;;;;-3.76;84.16;101557.66;1747980;82;20984;-74
2021/12/12 08:18:39;;;;;;;78.57;37.77;;;;;;;-3.68;84.33;101557.15;1747726;82;21135;-76
2021/12/12 08:21:07;;;;;;;151.27;66.07;;;;;;;-3.56;84.40;101564.44;1747846;82;21543;-74
2021/12/12 08:23:35;;;;;;;187.93;79.33;;;;;;;-3.48;84.34;101566.02;1747779;80;21018;-74
2021/12/12 08:26:05;;;;;;;126.20;63.20;;;;;;;-3.38;84.39;101569.00;1747810;82;21015;-75
2021/12/12 08:28:34;;;;;;;119.82;62.45;;;;;;;-3.30;84.29;101564.55;1748031;82;21034;-73
2021/12/12 08:31:03;;;;;;;115.17;61.40;;;;;;;-3.18;84.46;101568.87;1747837;82;21131;-75
2021/12/12 08:33:30;;;;;;;108.23;59.87;;;;;;;-3.13;84.33;101569.94;1747732;82;21059;-75
2021/12/12 08:35:59;;;;;;;103.63;57.90;;;;;;;-3.01;84.62;101577.20;1747989;82;20980;-75
2021/12/12 08:38:26;;;;;;;70.00;38.30;;;;;;;-2.90;84.53;101584.88;1747767;82;21031;-75
2021/12/12 08:40:58;;;;;;;54.27;30.73;;;;;;;-2.82;84.34;101591.17;1748251;82;20999;-75
2021/12/12 08:43:28;;;;;;;52.73;28.77;;;;;;;-2.79;84.21;101592.56;1747816;82;21880;-77
2021/12/12 08:46:08;;;;;;;58.63;30.73;;;;;;;-2.74;84.12;101596.59;1748096;82;20992;-75
2021/12/12 08:48:43;;;;;;;81.53;38.57;;;;;;;-2.68;84.08;101598.50;1746530;82;21004;-75
2021/12/12 08:51:30;;;;;;;107.63;61.87;;;;;;;-2.66;83.77;101597.73;1748237;82;21078;-75
2021/12/12 08:54:02;;;;;;;49.17;27.37;;;;;;;-2.61;83.85;101592.75;1747884;82;21023;-75
2021/12/12 08:56:45;;;;;;;49.17;25.30;;;;;;;-2.56;83.75;101589.52;1748185;82;21099;-74
2021/12/12 08:59:19;;;;;;;41.67;23.10;;;;;;;-2.53;83.72;101591.33;1747452;82;20984;-75
2021/12/12 09:01:50;;;;;;;45.23;25.37;;;;;;;-2.43;83.92;101589.97;1748163;82;21070;-75
2021/12/12 09:04:18;;;;;;;46.37;23.53;;;;;;;-2.33;84.14;101591.63;1747837;82;21167;-75
2021/12/12 09:07:12;;;;;;;42.93;23.03;;;;;;;-2.19;84.06;101590.83;1748129;82;21286;-75
2021/12/12 09:10:03;;;;;;;48.43;24.13;;;;;;;-2.12;83.80;101586.75;1745986;82;21154;-75
2021/12/12 09:12:40;;;;;;;50.77;23.93;;;;;;;-2.01;84.11;101584.12;1732386;82;21003;-75
2021/12/12 09:15:18;;;;;;;64.10;29.57;;;;;;;-1.89;83.85;101586.22;1710659;83;21469;-75
2021/12/12 09:17:50;;;;;;;58.30;29.23;;;;;;;-1.80;84.09;101582.69;1712354;83;20880;-75
2021/12/12 09:20:34;;;;;;;54.33;28.43;;;;;;;-1.64;84.06;101581.45;1711033;83;21528;-75
2021/12/12 09:23:09;;;;;;;78.77;39.00;;;;;;;-1.46;84.48;101575.61;1711948;83;22030;-75
2021/12/12 09:25:56;;;;;;;64.03;31.80;;;;;;;-1.28;84.41;101565.41;1711748;83;21019;-75
2021/12/12 09:28:47;;;;;;;54.47;28.57;;;;;;;-1.10;84.54;101558.25;1711999;83;20995;-75
2021/12/12 09:31:17;;;;;;;;;;;;;;;-0.91;84.50;101555.37;1714468;83;21484;-75
2021/12/12 09:33:55;;;;;;;62.33;33.33;;;;;;;-0.72;84.52;101549.05;1709534;83;20585;-75
2021/12/12 09:36:42;;;;;;;58.00;31.30;;;;;;;-0.57;84.05;101546.00;1711898;83;21074;-75
2021/12/12 09:39:21;;;;;;;46.60;26.33;;;;;;;-0.46;84.08;101538.56;1712204;83;20971;-75
2021/12/12 09:42:05;;;;;;;41.63;24.43;;;;;;;-0.32;83.77;101536.34;1711978;83;21018;-75
2021/12/12 09:45:16;;;;;;;40.60;24.00;;;;;;;-0.21;83.64;101532.75;1712312;83;21019;-75
2021/12/12 09:51:40;;;;;;;80.05;41.98;;;;;;;0.06;83.24;101519.67;1712149;83;21044;-75
2021/12/12 09:54:35;;;;;;;48.90;26.20;;;;;;;0.20;83.19;101520.87;1711938;83;20980;-75
2021/12/12 09:57:20;;;;;;;41.63;25.50;;;;;;;0.31;83.27;101513.38;1711859;83;21011;-75
2021/12/12 10:00:13;;;;;;;45.50;27.00;;;;;;;0.48;83.20;101515.05;1712040;83;21067;-76
2021/12/12 10:03:09;;;;;;;78.43;42.23;;;;;;;0.58;82.92;101509.23;1712316;83;21000;-76
2021/12/12 10:06:01;;;;;;;45.53;26.93;;;;;;;0.72;83.01;101506.55;1694327;83;21304;-76
2021/12/12 10:08:56;;;;;;;56.83;30.80;;;;;;;0.90;82.77;101506.05;1711884;83;21471;-76
2021/12/12 10:11:50;;;;;;;39.70;22.07;;;;;;;0.98;82.45;101512.66;1712016;83;21075;-76
2021/12/12 10:14:44;;;;;;;37.93;21.00;;;;;;;1.09;82.42;101499.53;1741706;82;21039;-76
2021/12/12 10:17:38;;;;;;;44.20;24.47;;;;;;;1.19;82.34;101507.02;1742995;82;20976;-76
2021/12/12 10:20:11;;;;;;;44.00;26.57;;;;;;;1.37;82.59;101507.38;1742850;82;21174;-76
2021/12/12 10:23:18;;;;;;;46.50;27.80;;;;;;;1.57;82.66;101505.14;1742804;82;21260;-76
2021/12/12 10:25:50;;;;;;;41.97;25.33;;;;;;;1.70;82.45;101509.69;1742501;82;21000;-76
2021/12/12 10:28:31;;;;;;;69.53;39.80;;;;;;;1.80;82.30;101517.16;1742687;81;20995;-76
2021/12/12 10:31:15;;;;;;;51.83;31.42;;;;;;;1.86;82.16;101513.80;1743006;81;21587;-76
2021/12/12 10:33:59;;;;;;;86.73;46.43;;;;;;;1.99;82.40;101516.61;1742712;82;21118;-76
2021/12/12 10:36:46;;;;;;;62.10;35.47;;;;;;;2.17;82.17;101512.59;1742719;82;21023;-75
2021/12/12 10:39:22;;;;;;;129.80;66.47;;;;;;;2.37;82.29;101507.28;1742454;82;21023;-75
2021/12/12 10:42:03;;;;;;;101.30;56.50;;;;;;;2.49;82.20;101503.12;1742989;81;20961;-75
2021/12/12 10:44:46;;;;;;;70.17;40.23;;;;;;;2.66;82.40;101499.03;1742835;81;21054;-75
2021/12/12 10:47:29;;;;;;;50.73;31.57;;;;;;;2.85;82.19;101494.96;1723204;82;21151;-75
2021/12/12 10:50:13;;;;;;;39.23;25.63;;;;;;;3.04;81.91;101493.47;1742768;82;21007;-76
2021/12/12 10:52:58;;;;;;;47.20;28.93;;;;;;;3.20;81.54;101499.69;1742742;82;21074;-75
2021/12/12 10:55:47;;;;;;;50.83;29.47;;;;;;;3.31;81.18;101495.05;1742958;82;21039;-75
2021/12/12 10:58:42;;;;;;;44.87;26.33;;;;;;;3.33;80.96;101490.77;1742997;81;21082;-75
2021/12/12 11:01:26;;;;;;;119.60;57.30;;;;;;;3.41;80.75;101486.97;1742838;82;21253;-75
2021/12/12 11:04:16;;;;;;;49.53;28.13;;;;;;;3.48;80.76;101487.87;1741532;82;21479;-75
2021/12/12 11:06:54;;;;;;;50.20;27.95;;;;;;;3.62;80.76;101482.82;1742827;82;21552;-75
2021/12/12 11:09:27;;;;;;;42.23;25.73;;;;;;;3.73;80.43;101482.48;1742917;81;21429;-76
2021/12/12 11:12:17;;;;;;;43.97;28.67;;;;;;;3.82;80.16;101480.39;1742744;81;21508;-75
2021/12/12 11:14:54;;;;;;;59.73;36.20;;;;;;;3.89;80.00;101483.48;1742780;81;21880;-77
2021/12/12 11:17:32;;;;;;;47.53;28.23;;;;;;;4.03;79.79;101483.16;1742673;81;21015;-76
2021/12/12 11:20:19;;;;;;;75.57;40.00;;;;;;;4.21;79.98;101474.20;1742783;82;20980;-75
2021/12/12 11:22:52;;;;;;;62.33;32.37;;;;;;;4.48;79.92;101467.42;1742842;82;21417;-75
2021/12/12 11:25:36;;;;;;;121.63;59.77;;;;;;;4.72;79.19;101474.91;1742608;82;20972;-75
2021/12/12 11:28:24;;;;;;;59.10;34.13;;;;;;;4.86;78.69;101471.48;1742804;82;21172;-76
2021/12/12 11:31:02;;;;;;;52.43;32.03;;;;;;;4.94;78.43;101475.42;1742779;82;21039;-77
2021/12/12 11:33:33;;;;;;;76.90;45.07;;;;;;;5.07;77.98;101469.41;1741587;82;21024;-76
2021/12/12 11:36:04;;;;;;;66.60;43.03;;;;;;;5.15;77.88;101468.09;1742946;81;21067;-76
2021/12/12 11:38:48;;;;;;;54.93;36.80;;;;;;;5.23;77.43;101467.68;1742973;82;21019;-77
2021/12/12 11:41:35;;;;;;;49.23;35.47;;;;;;;5.34;77.55;101468.57;1743046;82;21089;-77
2021/12/12 11:44:22;;;;;;;44.90;28.93;;;;;;;5.37;77.56;101469.87;1742519;82;21028;-77
2021/12/12 11:47:15;;;;;;;35.03;22.93;;;;;;;5.40;77.73;101467.70;1743026;82;21000;-76
2021/12/12 11:49:59;;;;;;;34.73;21.30;;;;;;;5.38;77.54;101472.06;1742895;82;21047;-76
2021/12/12 11:52:54;;;;;;;27.87;17.97;;;;;;;5.43;77.67;101470.75;1743250;81;21020;-77
2021/12/12 11:55:37;;;;;;;26.13;17.30;;;;;;;5.50;77.68;101468.60;1742924;82;21909;-77
2021/12/12 11:58:37;;;;;;;27.63;18.03;;;;;;;5.67;77.77;101464.27;1743306;82;21440;-77
2021/12/12 12:01:12;;;;;;;36.23;22.97;;;;;;;5.88;77.74;101472.95;1742932;82;21075;-76
2021/12/12 12:04:01;;;;;;;35.80;22.33;;;;;;;5.83;77.18;101470.34;1743303;82;20976;-77
2021/12/12 12:06:42;;;;;;;29.00;17.70;;;;;;;5.64;76.63;101463.41;1742977;82;21286;-77